sensor_id;sensor_type;location;lat;lon;timestamp;pressure;altitude;pressure_sealevel;temperature;humidity
41712;BME280;27399;51.516;13.670;2022-09-03T00:00:25;100739.34;;;16.03;72.83
41712;BME280;27399;51.516;13.670;2022-09-03T00:02:52;100736.13;;;15.88;73.46
41712;BME280;27399;51.516;13.670;2022-09-03T00:05:25;100733.88;;;15.70;73.80
41712;BME280;27399;51.516;13.670;2022-09-03T00:08:00;100729.13;;;15.81;73.66
41712;BME280;27399;51.516;13.670;2022-09-03T00:10:36;100727.28;;;15.83;74.26
41712;BME280;27399;51.516;13.670;2022-09-03T00:13:05;100727.13;;;15.91;73.56
41712;BME280;27399;51.516;13.670;2022-09-03T00:15:32;100732.66;;;15.83;73.34
41712;BME280;27399;51.516;13.670;2022-09-03T00:18:03;100723.53;;;15.90;73.47
41712;BME280;27399;51.516;13.670;2022-09-03T00:20:30;100721.25;;;15.73;73.59
41712;BME280;27399;51.516;13.670;2022-09-03T00:22:58;100724.31;;;15.95;73.43
41712;BME280;27399;51.516;13.670;2022-09-03T00:25:33;100732.63;;;15.86;73.87
41712;BME280;27399;51.516;13.670;2022-09-03T00:28:01;100727.81;;;15.99;73.58
41712;BME280;27399;51.516;13.670;2022-09-03T00:30:28;100728.91;;;15.90;73.73
41712;BME280;27399;51.516;13.670;2022-09-03T00:33:06;100721.97;;;15.80;74.14
41712;BME280;27399;51.516;13.670;2022-09-03T00:35:42;100717.69;;;15.73;73.52
41712;BME280;27399;51.516;13.670;2022-09-03T00:38:08;100720.72;;;15.97;74.06
41712;BME280;27399;51.516;13.670;2022-09-03T00:43:28;100712.56;;;15.62;74.02
41712;BME280;27399;51.516;13.670;2022-09-03T00:48:29;100716.59;;;15.80;74.89
41712;BME280;27399;51.516;13.670;2022-09-03T00:51:04;100712.97;;;15.81;74.73
41712;BME280;27399;51.516;13.670;2022-09-03T00:53:35;100714.50;;;15.93;74.25
41712;BME280;27399;51.516;13.670;2022-09-03T01:01:22;100700.47;;;15.80;75.01
41712;BME280;27399;51.516;13.670;2022-09-03T01:11:58;100712.13;;;15.79;74.21
41712;BME280;27399;51.516;13.670;2022-09-03T01:14:30;100704.78;;;15.51;75.38
41712;BME280;27399;51.516;13.670;2022-09-03T01:49:46;100693.44;;;15.38;75.26
41712;BME280;27399;51.516;13.670;2022-09-03T01:52:18;100687.84;;;15.46;75.25
41712;BME280;27399;51.516;13.670;2022-09-03T01:59:55;100699.41;;;15.51;74.94
41712;BME280;27399;51.516;13.670;2022-09-03T02:02:24;100697.97;;;15.34;74.85
41712;BME280;27399;51.516;13.670;2022-09-03T02:05:00;100700.75;;;15.31;75.16
41712;BME280;27399;51.516;13.670;2022-09-03T02:07:28;100718.25;;;15.12;76.77
41712;BME280;27399;51.516;13.670;2022-09-03T02:09:58;100715.13;;;14.91;76.49
41712;BME280;27399;51.516;13.670;2022-09-03T02:12:23;100711.84;;;15.16;75.83
41712;BME280;27399;51.516;13.670;2022-09-03T02:14:48;100716.00;;;15.31;75.19
41712;BME280;27399;51.516;13.670;2022-09-03T02:17:14;100714.47;;;15.19;75.93
41712;BME280;27399;51.516;13.670;2022-09-03T02:19:39;100708.22;;;15.18;76.16
41712;BME280;27399;51.516;13.670;2022-09-03T02:22:05;100714.31;;;15.25;75.72
41712;BME280;27399;51.516;13.670;2022-09-03T02:24:30;100704.19;;;15.38;75.45
41712;BME280;27399;51.516;13.670;2022-09-03T02:26:56;100707.63;;;15.06;76.23
41712;BME280;27399;51.516;13.670;2022-09-03T02:29:22;100704.59;;;15.21;75.84
41712;BME280;27399;51.516;13.670;2022-09-03T02:31:48;100700.47;;;15.05;76.63
41712;BME280;27399;51.516;13.670;2022-09-03T02:34:13;100700.88;;;14.86;76.61
41712;BME280;27399;51.516;13.670;2022-09-03T02:36:40;100694.75;;;14.79;76.28
41712;BME280;27399;51.516;13.670;2022-09-03T02:39:06;100703.09;;;15.08;75.79
41712;BME280;27399;51.516;13.670;2022-09-03T02:41:31;100690.34;;;14.77;76.35
41712;BME280;27399;51.516;13.670;2022-09-03T02:43:59;100699.72;;;14.98;76.05
41712;BME280;27399;51.516;13.670;2022-09-03T02:46:30;100697.78;;;14.62;77.42
41712;BME280;27399;51.516;13.670;2022-09-03T02:48:57;100691.81;;;14.92;77.32
41712;BME280;27399;51.516;13.670;2022-09-03T02:51:22;100696.06;;;15.02;76.39
41712;BME280;27399;51.516;13.670;2022-09-03T02:53:48;100698.59;;;15.10;76.45
41712;BME280;27399;51.516;13.670;2022-09-03T02:56:13;100699.44;;;15.12;76.33
41712;BME280;27399;51.516;13.670;2022-09-03T02:58:39;100696.28;;;14.93;76.83
41712;BME280;27399;51.516;13.670;2022-09-03T03:01:05;100705.28;;;14.88;77.73
41712;BME280;27399;51.516;13.670;2022-09-03T03:03:31;100701.31;;;15.07;77.26
41712;BME280;27399;51.516;13.670;2022-09-03T03:05:57;100695.53;;;14.86;77.61
41712;BME280;27399;51.516;13.670;2022-09-03T03:08:25;100701.59;;;14.96;77.50
41712;BME280;27399;51.516;13.670;2022-09-03T03:10:52;100706.09;;;14.92;77.49
41712;BME280;27399;51.516;13.670;2022-09-03T03:13:18;100704.69;;;15.16;77.06
41712;BME280;27399;51.516;13.670;2022-09-03T03:15:44;100715.56;;;14.69;78.67
41712;BME280;27399;51.516;13.670;2022-09-03T03:18:11;100704.28;;;14.94;77.26
41712;BME280;27399;51.516;13.670;2022-09-03T03:20:38;100702.50;;;14.93;78.07
41712;BME280;27399;51.516;13.670;2022-09-03T03:23:04;100705.75;;;14.67;78.48
41712;BME280;27399;51.516;13.670;2022-09-03T03:25:36;100708.56;;;15.03;77.21
41712;BME280;27399;51.516;13.670;2022-09-03T03:28:02;100710.56;;;14.95;77.81
41712;BME280;27399;51.516;13.670;2022-09-03T03:30:29;100702.03;;;15.15;77.01
41712;BME280;27399;51.516;13.670;2022-09-03T03:32:54;100702.66;;;14.87;78.08
41712;BME280;27399;51.516;13.670;2022-09-03T03:35:20;100697.03;;;14.99;77.94
41712;BME280;27399;51.516;13.670;2022-09-03T03:37:46;100702.16;;;14.66;78.29
41712;BME280;27399;51.516;13.670;2022-09-03T03:40:11;100698.66;;;14.63;78.68
41712;BME280;27399;51.516;13.670;2022-09-03T03:42:37;100694.13;;;14.66;78.37
41712;BME280;27399;51.516;13.670;2022-09-03T03:45:02;100703.19;;;14.61;78.70
41712;BME280;27399;51.516;13.670;2022-09-03T03:47:28;100696.81;;;15.09;77.25
41712;BME280;27399;51.516;13.670;2022-09-03T03:49:57;100694.75;;;14.81;77.77
41712;BME280;27399;51.516;13.670;2022-09-03T03:52:23;100702.91;;;14.75;78.35
41712;BME280;27399;51.516;13.670;2022-09-03T03:54:48;100701.84;;;14.82;78.61
41712;BME280;27399;51.516;13.670;2022-09-03T03:57:14;100702.72;;;14.84;78.03
41712;BME280;27399;51.516;13.670;2022-09-03T03:59:40;100707.75;;;14.99;77.42
41712;BME280;27399;51.516;13.670;2022-09-03T04:02:05;100712.66;;;14.80;78.52
41712;BME280;27399;51.516;13.670;2022-09-03T04:04:31;100709.41;;;14.63;78.27
41712;BME280;27399;51.516;13.670;2022-09-03T04:06:56;100704.94;;;15.06;77.61
41712;BME280;27399;51.516;13.670;2022-09-03T04:09:21;100699.38;;;14.72;78.59
41712;BME280;27399;51.516;13.670;2022-09-03T04:11:47;100695.19;;;15.01;77.81
41712;BME280;27399;51.516;13.670;2022-09-03T04:14:12;100698.09;;;14.91;78.02
41712;BME280;27399;51.516;13.670;2022-09-03T04:16:38;100697.69;;;15.09;77.85
41712;BME280;27399;51.516;13.670;2022-09-03T04:19:03;100701.78;;;14.86;78.33
41712;BME280;27399;51.516;13.670;2022-09-03T04:21:29;100703.94;;;14.66;77.54
41712;BME280;27399;51.516;13.670;2022-09-03T04:23:55;100700.50;;;14.61;78.57
41712;BME280;27399;51.516;13.670;2022-09-03T04:26:28;100698.00;;;14.95;78.04
41712;BME280;27399;51.516;13.670;2022-09-03T04:28:57;100698.56;;;14.70;78.93
41712;BME280;27399;51.516;13.670;2022-09-03T04:31:22;100697.38;;;14.82;78.41
41712;BME280;27399;51.516;13.670;2022-09-03T04:33:48;100698.06;;;14.92;78.28
41712;BME280;27399;51.516;13.670;2022-09-03T04:36:14;100702.09;;;14.71;78.36
41712;BME280;27399;51.516;13.670;2022-09-03T04:38:41;100702.63;;;14.88;77.58
41712;BME280;27399;51.516;13.670;2022-09-03T04:41:07;100708.44;;;14.68;78.92
41712;BME280;27399;51.516;13.670;2022-09-03T04:43:34;100710.28;;;14.63;78.91
41712;BME280;27399;51.516;13.670;2022-09-03T04:46:00;100704.38;;;14.91;78.36
41712;BME280;27399;51.516;13.670;2022-09-03T04:48:26;100705.28;;;14.90;78.63
41712;BME280;27399;51.516;13.670;2022-09-03T04:50:52;100706.91;;;14.53;78.25
41712;BME280;27399;51.516;13.670;2022-09-03T04:53:19;100706.50;;;14.74;78.79
41712;BME280;27399;51.516;13.670;2022-09-03T04:55:44;100702.66;;;14.87;78.00
41712;BME280;27399;51.516;13.670;2022-09-03T04:58:10;100704.44;;;14.88;77.31
41712;BME280;27399;51.516;13.670;2022-09-03T05:00:36;100700.63;;;14.98;78.59
41712;BME280;27399;51.516;13.670;2022-09-03T05:03:01;100699.72;;;14.98;78.48
41712;BME280;27399;51.516;13.670;2022-09-03T05:05:29;100708.44;;;14.67;78.73
41712;BME280;27399;51.516;13.670;2022-09-03T05:07:59;100712.78;;;15.15;77.58
41712;BME280;27399;51.516;13.670;2022-09-03T05:10:26;100710.94;;;15.17;76.97
41712;BME280;27399;51.516;13.670;2022-09-03T05:13:02;100708.56;;;15.03;77.24
41712;BME280;27399;51.516;13.670;2022-09-03T05:15:28;100712.78;;;15.15;77.02
41712;BME280;27399;51.516;13.670;2022-09-03T05:17:57;100717.50;;;15.03;78.56
41712;BME280;27399;51.516;13.670;2022-09-03T05:20:23;100718.25;;;15.12;78.52
41712;BME280;27399;51.516;13.670;2022-09-03T05:22:49;100716.19;;;15.23;77.58
41712;BME280;27399;51.516;13.670;2022-09-03T05:25:14;100712.50;;;15.27;76.80
41712;BME280;27399;51.516;13.670;2022-09-03T05:27:40;100702.03;;;15.54;76.59
41712;BME280;27399;51.516;13.670;2022-09-03T05:30:05;100717.16;;;15.19;77.57
41712;BME280;27399;51.516;13.670;2022-09-03T05:32:31;100710.16;;;15.51;76.59
41712;BME280;27399;51.516;13.670;2022-09-03T05:34:57;100721.47;;;15.26;78.29
41712;BME280;27399;51.516;13.670;2022-09-03T05:37:22;100708.72;;;15.34;78.44
41712;BME280;27399;51.516;13.670;2022-09-03T05:39:47;100703.16;;;15.44;77.87
41712;BME280;27399;51.516;13.670;2022-09-03T05:42:13;100703.63;;;15.61;76.46
41712;BME280;27399;51.516;13.670;2022-09-03T05:44:39;100698.06;;;15.69;77.06
41712;BME280;27399;51.516;13.670;2022-09-03T05:47:04;100700.00;;;15.62;77.05
41712;BME280;27399;51.516;13.670;2022-09-03T05:49:30;100702.53;;;15.70;75.84
41712;BME280;27399;51.516;13.670;2022-09-03T05:51:56;100701.94;;;15.93;76.31
41712;BME280;27399;51.516;13.670;2022-09-03T05:54:21;100705.00;;;15.78;76.48
41712;BME280;27399;51.516;13.670;2022-09-03T05:56:47;100713.28;;;15.69;76.26
41712;BME280;27399;51.516;13.670;2022-09-03T05:59:12;100707.25;;;15.97;74.90
41712;BME280;27399;51.516;13.670;2022-09-03T06:01:39;100712.38;;;16.06;74.40
41712;BME280;27399;51.516;13.670;2022-09-03T06:04:05;100708.06;;;16.00;76.36
41712;BME280;27399;51.516;13.670;2022-09-03T06:06:33;100712.13;;;16.15;74.86
41712;BME280;27399;51.516;13.670;2022-09-03T06:08:59;100708.97;;;15.99;74.66
41712;BME280;27399;51.516;13.670;2022-09-03T06:11:26;100712.13;;;16.15;73.84
41712;BME280;27399;51.516;13.670;2022-09-03T06:14:00;100707.84;;;16.08;75.68
41712;BME280;27399;51.516;13.670;2022-09-03T06:16:26;100705.66;;;16.22;73.18
41712;BME280;27399;51.516;13.670;2022-09-03T06:18:52;100709.94;;;16.30;73.23
41712;BME280;27399;51.516;13.670;2022-09-03T06:21:19;100704.84;;;16.52;73.62
41712;BME280;27399;51.516;13.670;2022-09-03T06:23:48;100713.19;;;16.42;73.63
41712;BME280;27399;51.516;13.670;2022-09-03T06:26:13;100707.59;;;16.50;74.57
41712;BME280;27399;51.516;13.670;2022-09-03T06:28:40;100707.00;;;16.39;75.34
41712;BME280;27399;51.516;13.670;2022-09-03T06:31:08;100713.13;;;16.44;74.43
41712;BME280;27399;51.516;13.670;2022-09-03T06:33:34;100706.28;;;16.64;73.33
41712;BME280;27399;51.516;13.670;2022-09-03T06:36:01;100714.97;;;16.42;72.70
41712;BME280;27399;51.516;13.670;2022-09-03T06:38:28;100707.63;;;16.80;71.83
41712;BME280;27399;51.516;13.670;2022-09-03T06:40:56;100716.47;;;16.52;73.10
41712;BME280;27399;51.516;13.670;2022-09-03T06:43:22;100711.53;;;16.68;72.51
41712;BME280;27399;51.516;13.670;2022-09-03T06:45:58;100711.78;;;16.91;72.37
41712;BME280;27399;51.516;13.670;2022-09-03T06:48:25;100718.38;;;16.80;71.67
41712;BME280;27399;51.516;13.670;2022-09-03T06:53:19;100716.63;;;16.79;71.49
41712;BME280;27399;51.516;13.670;2022-09-03T06:55:51;100719.84;;;17.22;70.09
41712;BME280;27399;51.516;13.670;2022-09-03T06:58:16;100717.75;;;17.32;70.99
41712;BME280;27399;51.516;13.670;2022-09-03T07:00:42;100721.16;;;17.37;70.46
41712;BME280;27399;51.516;13.670;2022-09-03T07:03:08;100718.41;;;17.10;71.25
41712;BME280;27399;51.516;13.670;2022-09-03T07:05:34;100711.59;;;16.98;70.40
41712;BME280;27399;51.516;13.670;2022-09-03T07:07:59;100719.75;;;17.25;70.99
41712;BME280;27399;51.516;13.670;2022-09-03T07:10:24;100715.03;;;17.32;70.72
41712;BME280;27399;51.516;13.670;2022-09-03T07:12:52;100711.53;;;17.57;70.54
41712;BME280;27399;51.516;13.670;2022-09-03T07:15:20;100704.34;;;17.57;70.12
41712;BME280;27399;51.516;13.670;2022-09-03T07:17:45;100705.47;;;17.50;69.95
41712;BME280;27399;51.516;13.670;2022-09-03T07:20:10;100706.13;;;17.57;68.71
41712;BME280;27399;51.516;13.670;2022-09-03T07:22:36;100702.03;;;17.45;69.17
41712;BME280;27399;51.516;13.670;2022-09-03T07:25:01;100703.69;;;17.77;67.89
41712;BME280;27399;51.516;13.670;2022-09-03T07:27:27;100701.41;;;17.65;68.71
41712;BME280;27399;51.516;13.670;2022-09-03T07:29:52;100707.31;;;17.76;67.63
41712;BME280;27399;51.516;13.670;2022-09-03T07:32:17;100704.31;;;17.84;68.38
41712;BME280;27399;51.516;13.670;2022-09-03T07:34:43;100705.94;;;18.17;67.62
41712;BME280;27399;51.516;13.670;2022-09-03T07:37:08;100697.53;;;17.99;66.61
41712;BME280;27399;51.516;13.670;2022-09-03T07:39:34;100701.09;;;18.26;68.75
41712;BME280;27399;51.516;13.670;2022-09-03T07:42:00;100701.41;;;18.42;68.49
41712;BME280;27399;51.516;13.670;2022-09-03T07:44:26;100695.41;;;18.34;66.72
41712;BME280;27399;51.516;13.670;2022-09-03T07:46:52;100708.25;;;18.77;66.99
41712;BME280;27399;51.516;13.670;2022-09-03T07:49:18;100697.78;;;18.43;64.25
41712;BME280;27399;51.516;13.670;2022-09-03T07:51:45;100707.00;;;18.62;66.78
41712;BME280;27399;51.516;13.670;2022-09-03T07:54:14;100703.09;;;18.94;65.57
41712;BME280;27399;51.516;13.670;2022-09-03T07:56:40;100701.38;;;18.93;65.89
41712;BME280;27399;51.516;13.670;2022-09-03T07:59:06;100701.09;;;18.99;64.97
41712;BME280;27399;51.516;13.670;2022-09-03T08:01:31;100696.63;;;19.22;64.56
41712;BME280;27399;51.516;13.670;2022-09-03T08:03:58;100690.84;;;19.31;63.69
41712;BME280;27399;51.516;13.670;2022-09-03T08:06:24;100682.28;;;19.20;63.80
41712;BME280;27399;51.516;13.670;2022-09-03T08:08:57;100686.69;;;19.45;65.22
41712;BME280;27399;51.516;13.670;2022-09-03T08:11:23;100689.81;;;19.56;62.65
41712;BME280;27399;51.516;13.670;2022-09-03T08:13:53;100684.34;;;19.58;63.29
41712;BME280;27399;51.516;13.670;2022-09-03T08:16:19;100690.38;;;19.64;64.19
41712;BME280;27399;51.516;13.670;2022-09-03T08:18:45;100684.19;;;19.83;63.44
41712;BME280;27399;51.516;13.670;2022-09-03T08:21:13;100684.47;;;19.77;65.62
41712;BME280;27399;51.516;13.670;2022-09-03T08:23:40;100688.16;;;19.74;62.04
41712;BME280;27399;51.516;13.670;2022-09-03T08:26:06;100683.75;;;19.72;63.79
41712;BME280;27399;51.516;13.670;2022-09-03T08:28:32;100693.19;;;19.84;63.13
41712;BME280;27399;51.516;13.670;2022-09-03T08:31:03;100689.56;;;20.05;63.14
41712;BME280;27399;51.516;13.670;2022-09-03T08:33:29;100688.41;;;20.11;63.31
41712;BME280;27399;51.516;13.670;2022-09-03T08:36:05;100685.91;;;20.27;62.04
41712;BME280;27399;51.516;13.670;2022-09-03T08:38:32;100687.72;;;20.47;63.09
41712;BME280;27399;51.516;13.670;2022-09-03T08:41:05;100673.81;;;20.15;59.61
41712;BME280;27399;51.516;13.670;2022-09-03T08:43:31;100679.31;;;20.33;59.77
41712;BME280;27399;51.516;13.670;2022-09-03T08:46:00;100676.66;;;20.52;60.36
41712;BME280;27399;51.516;13.670;2022-09-03T08:48:29;100678.34;;;20.54;61.24
41712;BME280;27399;51.516;13.670;2022-09-03T08:50:55;100612.22;;;20.20;59.55
41712;BME280;27399;51.516;13.670;2022-09-03T08:55:53;100664.91;;;21.10;59.54
41712;BME280;27399;51.516;13.670;2022-09-03T08:58:26;100661.38;;;21.27;59.86
41712;BME280;27399;51.516;13.670;2022-09-03T09:03:33;100661.75;;;21.56;57.54
41712;BME280;27399;51.516;13.670;2022-09-03T09:08:29;100662.44;;;21.96;56.57
41712;BME280;27399;51.516;13.670;2022-09-03T09:11:01;100660.63;;;21.97;57.71
41712;BME280;27399;51.516;13.670;2022-09-03T09:13:44;100665.22;;;22.30;57.17
41712;BME280;27399;51.516;13.670;2022-09-03T09:21:53;100663.84;;;22.72;57.19
41712;BME280;27399;51.516;13.670;2022-09-03T09:24:24;100658.94;;;22.79;56.40
41712;BME280;27399;51.516;13.670;2022-09-03T09:26:55;100652.72;;;22.77;56.22
41712;BME280;27399;51.516;13.670;2022-09-03T09:29:22;100651.66;;;23.12;54.66
41712;BME280;27399;51.516;13.670;2022-09-03T09:31:51;100656.69;;;22.87;55.21
41712;BME280;27399;51.516;13.670;2022-09-03T09:34:18;100651.78;;;22.94;55.65
41712;BME280;27399;51.516;13.670;2022-09-03T09:36:51;100643.16;;;22.86;55.74
41712;BME280;27399;51.516;13.670;2022-09-03T09:39:17;100647.28;;;22.77;54.43
41712;BME280;27399;51.516;13.670;2022-09-03T09:41:53;100653.31;;;22.66;54.04
41712;BME280;27399;51.516;13.670;2022-09-03T09:44:20;100647.13;;;22.47;54.51
41712;BME280;27399;51.516;13.670;2022-09-03T09:46:46;100656.50;;;22.41;53.82
41712;BME280;27399;51.516;13.670;2022-09-03T09:51:46;100636.84;;;22.69;54.14
41712;BME280;27399;51.516;13.670;2022-09-03T09:54:16;100637.38;;;22.92;55.16
41712;BME280;27399;51.516;13.670;2022-09-03T09:56:56;100647.19;;;22.79;56.98
41712;BME280;27399;51.516;13.670;2022-09-03T09:59:22;100643.16;;;22.86;55.06
41712;BME280;27399;51.516;13.670;2022-09-03T10:01:47;100644.41;;;22.80;54.80
41712;BME280;27399;51.516;13.670;2022-09-03T10:04:23;100628.53;;;23.04;54.74
41712;BME280;27399;51.516;13.670;2022-09-03T10:06:55;100634.75;;;22.74;55.32
41712;BME280;27399;51.516;13.670;2022-09-03T10:09:27;100631.56;;;22.82;55.00
41712;BME280;27399;51.516;13.670;2022-09-03T10:12:12;100622.81;;;22.77;56.58
41712;BME280;27399;51.516;13.670;2022-09-03T10:14:46;100621.22;;;22.73;56.89
41712;BME280;27399;51.516;13.670;2022-09-03T10:20:06;100620.00;;;23.11;55.42
41712;BME280;27399;51.516;13.670;2022-09-03T10:28:14;100610.19;;;22.92;54.59
41712;BME280;27399;51.516;13.670;2022-09-03T10:30:47;100601.50;;;23.01;55.75
41712;BME280;27399;51.516;13.670;2022-09-03T10:33:26;100603.50;;;23.14;56.46
41712;BME280;27399;51.516;13.670;2022-09-03T10:36:04;100600.16;;;23.09;53.07
41712;BME280;27399;51.516;13.670;2022-09-03T10:38:34;100600.84;;;23.12;53.51
41712;BME280;27399;51.516;13.670;2022-09-03T10:41:06;100592.28;;;22.88;54.67
41712;BME280;27399;51.516;13.670;2022-09-03T10:46:10;100597.53;;;23.07;53.05
41712;BME280;27399;51.516;13.670;2022-09-03T10:51:05;100597.41;;;23.41;53.46
41712;BME280;27399;51.516;13.670;2022-09-03T11:02:05;100589.81;;;23.31;54.55
41712;BME280;27399;51.516;13.670;2022-09-03T11:06:58;100579.00;;;23.60;51.82
41712;BME280;27399;51.516;13.670;2022-09-03T11:09:28;100574.09;;;23.36;52.80
41712;BME280;27399;51.516;13.670;2022-09-03T11:11:59;100582.72;;;23.59;53.36
41712;BME280;27399;51.516;13.670;2022-09-03T11:14:31;100566.97;;;23.64;53.03
41712;BME280;27399;51.516;13.670;2022-09-03T11:17:01;100568.63;;;23.67;52.14
41712;BME280;27399;51.516;13.670;2022-09-03T11:19:43;100568.38;;;23.86;53.37
41712;BME280;27399;51.516;13.670;2022-09-03T11:22:12;100567.59;;;23.70;51.65
41712;BME280;27399;51.516;13.670;2022-09-03T11:24:41;100566.28;;;23.61;52.66
41712;BME280;27399;51.516;13.670;2022-09-03T11:32:24;100568.81;;;24.09;51.87
41712;BME280;27399;51.516;13.670;2022-09-03T11:34:49;100572.69;;;24.05;53.59
41712;BME280;27399;51.516;13.670;2022-09-03T11:37:16;100553.63;;;24.19;54.02
41712;BME280;27399;51.516;13.670;2022-09-03T11:39:43;100563.94;;;24.14;52.36
41712;BME280;27399;51.516;13.670;2022-09-03T11:42:10;100567.94;;;24.37;51.59
41712;BME280;27399;51.516;13.670;2022-09-03T11:44:37;100555.84;;;24.56;50.75
41712;BME280;27399;51.516;13.670;2022-09-03T11:47:12;100540.16;;;24.74;50.58
41712;BME280;27399;51.516;13.670;2022-09-03T11:49:42;100552.75;;;24.89;50.77
41712;BME280;27399;51.516;13.670;2022-09-03T11:52:08;100544.81;;;24.72;50.47
41712;BME280;27399;51.516;13.670;2022-09-03T11:54:44;100549.88;;;24.64;50.33
41712;BME280;27399;51.516;13.670;2022-09-03T11:57:14;100558.56;;;24.56;51.36
41712;BME280;27399;51.516;13.670;2022-09-03T11:59:40;100550.09;;;24.75;51.25
41712;BME280;27399;51.516;13.670;2022-09-03T12:23:33;100543.78;;;24.31;51.47
41712;BME280;27399;51.516;13.670;2022-09-03T12:26:05;100538.53;;;24.42;53.32
41712;BME280;27399;51.516;13.670;2022-09-03T12:28:33;100536.28;;;24.35;51.11
41712;BME280;27399;51.516;13.670;2022-09-03T12:31:07;100530.44;;;24.41;52.09
41712;BME280;27399;51.516;13.670;2022-09-03T12:33:45;100522.47;;;24.38;51.44
41712;BME280;27399;51.516;13.670;2022-09-03T12:36:12;100531.56;;;23.95;51.37
41712;BME280;27399;51.516;13.670;2022-09-03T12:38:38;100533.59;;;24.06;51.48
41712;BME280;27399;51.516;13.670;2022-09-03T12:41:03;100533.97;;;24.14;52.71
41712;BME280;27399;51.516;13.670;2022-09-03T12:43:28;100534.63;;;23.89;52.34
41712;BME280;27399;51.516;13.670;2022-09-03T12:45:54;100538.00;;;23.92;51.46
41712;BME280;27399;51.516;13.670;2022-09-03T12:48:20;100540.59;;;23.95;54.06
41712;BME280;27399;51.516;13.670;2022-09-03T12:50:47;100528.91;;;24.08;52.99
41712;BME280;27399;51.516;13.670;2022-09-03T12:53:25;100528.91;;;24.08;51.55
41712;BME280;27399;51.516;13.670;2022-09-03T12:55:51;100536.47;;;24.46;52.77
41712;BME280;27399;51.516;13.670;2022-09-03T12:58:32;100530.81;;;24.49;53.72
41712;BME280;27399;51.516;13.670;2022-09-03T13:01:04;100525.47;;;24.48;53.32
41712;BME280;27399;51.516;13.670;2022-09-03T13:03:48;100521.69;;;24.36;51.50
41712;BME280;27399;51.516;13.670;2022-09-03T13:06:22;100510.59;;;24.39;51.45
41712;BME280;27399;51.516;13.670;2022-09-03T13:08:50;100509.25;;;24.32;52.19
41712;BME280;27399;51.516;13.670;2022-09-03T13:11:19;100503.97;;;24.43;53.67
41712;BME280;27399;51.516;13.670;2022-09-03T13:13:54;100512.72;;;24.48;53.60
41712;BME280;27399;51.516;13.670;2022-09-03T13:17:08;100507.09;;;24.37;54.03
41712;BME280;27399;51.516;13.670;2022-09-03T13:21:43;100507.31;;;24.61;52.43
41712;BME280;27399;51.516;13.670;2022-09-03T13:24:18;100510.16;;;24.18;52.53
41712;BME280;27399;51.516;13.670;2022-09-03T13:29:38;100498.69;;;24.54;54.15
41712;BME280;27399;51.516;13.670;2022-09-03T13:37:54;100487.75;;;24.69;52.64
41712;BME280;27399;51.516;13.670;2022-09-03T13:40:27;100485.31;;;24.79;53.51
41712;BME280;27399;51.516;13.670;2022-09-03T13:43:00;100493.78;;;24.74;53.53
41712;BME280;27399;51.516;13.670;2022-09-03T13:46:28;100489.97;;;24.35;52.97
41712;BME280;27399;51.516;13.670;2022-09-03T13:48:30;100489.63;;;24.54;52.47
41712;BME280;27399;51.516;13.670;2022-09-03T13:51:20;100484.19;;;24.54;53.17
41712;BME280;27399;51.516;13.670;2022-09-03T13:53:50;100495.50;;;24.48;53.28
41712;BME280;27399;51.516;13.670;2022-09-03T13:56:24;100481.44;;;24.54;53.07
41712;BME280;27399;51.516;13.670;2022-09-03T13:59:04;100469.53;;;24.42;53.18
41712;BME280;27399;51.516;13.670;2022-09-03T14:04:20;100469.91;;;24.36;53.51
41712;BME280;27399;51.516;13.670;2022-09-03T14:06:54;100484.19;;;24.54;52.48
41712;BME280;27399;51.516;13.670;2022-09-03T14:09:28;100474.13;;;24.27;52.66
41712;BME280;27399;51.516;13.670;2022-09-03T14:15:14;100473.47;;;24.51;52.75
41712;BME280;27399;51.516;13.670;2022-09-03T14:22:55;100470.31;;;24.29;53.59
41712;BME280;27399;51.516;13.670;2022-09-03T14:25:24;100465.75;;;24.57;52.15
41712;BME280;27399;51.516;13.670;2022-09-03T14:27:49;100463.44;;;24.24;52.94
41712;BME280;27399;51.516;13.670;2022-09-03T14:32:53;100454.63;;;24.33;53.53
41712;BME280;27399;51.516;13.670;2022-09-03T14:35:25;100460.09;;;24.19;54.14
41712;BME280;27399;51.516;13.670;2022-09-03T14:40:39;100449.50;;;24.28;53.84
41712;BME280;27399;51.516;13.670;2022-09-03T15:01:39;100459.97;;;24.35;54.83
41712;BME280;27399;51.516;13.670;2022-09-03T15:04:12;100468.38;;;24.17;54.99
41712;BME280;27399;51.516;13.670;2022-09-03T15:09:21;100460.41;;;24.28;55.09
41712;BME280;27399;51.516;13.670;2022-09-03T15:11:54;100459.97;;;24.35;54.34
41712;BME280;27399;51.516;13.670;2022-09-03T15:14:55;100452.16;;;24.16;53.73
41712;BME280;27399;51.516;13.670;2022-09-03T15:19:49;100467.72;;;24.13;54.50
41712;BME280;27399;51.516;13.670;2022-09-03T15:22:29;100466.16;;;24.09;53.84
41712;BME280;27399;51.516;13.670;2022-09-03T15:30:11;100465.75;;;23.87;56.52
41712;BME280;27399;51.516;13.670;2022-09-03T15:38:00;100469.94;;;23.92;57.01
41712;BME280;27399;51.516;13.670;2022-09-03T15:40:29;100460.78;;;23.93;57.66
41712;BME280;27399;51.516;13.670;2022-09-03T15:43:37;100459.72;;;23.67;57.19
41712;BME280;27399;51.516;13.670;2022-09-03T15:49:15;100465.38;;;23.78;56.42
41712;BME280;27399;51.516;13.670;2022-09-03T15:51:12;100473.06;;;23.57;57.28
41712;BME280;27399;51.516;13.670;2022-09-03T15:53:46;100475.50;;;23.62;57.68
41712;BME280;27399;51.516;13.670;2022-09-03T15:56:21;100474.22;;;23.67;57.21
41712;BME280;27399;51.516;13.670;2022-09-03T16:03:45;100463.91;;;23.73;56.93